createdAt,value
2023-10-23T00:01:22.243Z,2.53
2023-10-23T00:03:51.827Z,2.17
2023-10-23T00:06:18.678Z,2.10
2023-10-23T00:08:45.341Z,2.27
2023-10-23T00:11:22.883Z,2.30
2023-10-23T00:13:49.559Z,2.60
2023-10-23T00:16:16.211Z,2.40
2023-10-23T00:18:43.128Z,2.20
2023-10-23T00:21:09.810Z,2.43
2023-10-23T00:23:36.626Z,2.53
2023-10-23T00:26:03.387Z,2.30
2023-10-23T00:28:30.000Z,2.30
2023-10-23T00:30:56.722Z,2.43
2023-10-23T00:33:23.504Z,2.20
2023-10-23T00:35:50.258Z,2.37
2023-10-23T00:38:16.888Z,2.50
2023-10-23T00:40:43.697Z,2.33
2023-10-23T00:43:14.061Z,2.50
2023-10-23T00:45:49.972Z,2.37
2023-10-23T00:48:17.515Z,2.17
2023-10-23T00:50:44.221Z,2.23
2023-10-23T00:53:11.284Z,2.43
2023-10-23T00:55:38.014Z,2.17
2023-10-23T00:58:04.778Z,2.43
2023-10-23T01:00:32.040Z,2.70
2023-10-23T01:02:58.737Z,2.43
2023-10-23T01:05:25.382Z,2.10
2023-10-23T01:07:52.101Z,2.03
2023-10-23T01:10:19.262Z,2.20
2023-10-23T01:12:45.906Z,1.80
2023-10-23T01:15:12.559Z,2.30
2023-10-23T01:17:39.219Z,2.03
2023-10-23T01:20:09.694Z,2.27
2023-10-23T01:22:36.402Z,1.90
2023-10-23T01:25:03.316Z,1.80
2023-10-23T01:27:29.970Z,1.80
2023-10-23T01:29:56.609Z,2.20
2023-10-23T01:32:23.242Z,1.73
2023-10-23T01:34:49.866Z,2.10
2023-10-23T01:37:16.515Z,2.30
2023-10-23T01:39:43.278Z,2.13
2023-10-23T01:42:09.951Z,1.90
2023-10-23T01:44:36.683Z,1.90
2023-10-23T01:47:03.428Z,2.03
2023-10-23T01:49:30.186Z,2.00
2023-10-23T01:51:56.924Z,1.80
2023-10-23T01:54:23.654Z,2.10
2023-10-23T01:56:50.729Z,1.80
2023-10-23T01:59:17.430Z,2.10
2023-10-23T02:01:44.365Z,2.00
2023-10-23T02:04:11.363Z,2.10
2023-10-23T02:06:38.331Z,1.80
2023-10-23T02:09:05.437Z,1.90
2023-10-23T02:11:32.401Z,2.07
2023-10-23T02:14:01.419Z,2.20
2023-10-23T02:16:28.090Z,1.90
2023-10-23T02:18:54.843Z,2.10
2023-10-23T02:21:21.590Z,2.30
2023-10-23T02:23:56.221Z,1.80
2023-10-23T02:26:23.626Z,2.27
2023-10-23T02:28:50.224Z,1.80
2023-10-23T02:31:16.923Z,1.80
2023-10-23T02:33:43.750Z,1.90
2023-10-23T02:36:10.420Z,1.63
2023-10-23T02:38:37.079Z,1.50
2023-10-23T02:41:03.829Z,1.83
2023-10-23T02:43:30.535Z,1.90
2023-10-23T02:46:02.335Z,1.87
2023-10-23T02:48:29.392Z,2.00
2023-10-23T02:50:57.190Z,1.87
2023-10-23T02:53:24.386Z,1.97
2023-10-23T02:55:53.828Z,2.30
2023-10-23T02:58:20.730Z,2.10
2023-10-23T03:00:47.408Z,1.63
2023-10-23T03:03:14.462Z,1.87
2023-10-23T03:05:41.154Z,2.40
2023-10-23T03:08:07.782Z,1.93
2023-10-23T03:10:34.758Z,2.23
2023-10-23T03:13:01.480Z,2.07
2023-10-23T03:15:28.217Z,2.60
2023-10-23T03:17:55.165Z,2.40
2023-10-23T03:20:21.793Z,1.80
2023-10-23T03:22:48.407Z,2.00
2023-10-23T03:25:15.030Z,2.07
2023-10-23T03:27:42.832Z,1.77
2023-10-23T03:30:09.914Z,2.10
2023-10-23T03:32:36.706Z,2.13
2023-10-23T03:35:04.568Z,2.30
2023-10-23T03:37:31.329Z,2.30
2023-10-23T03:39:57.996Z,1.97
2023-10-23T03:42:24.679Z,2.20
2023-10-23T03:44:51.422Z,2.10
2023-10-23T03:47:18.066Z,2.20
2023-10-23T03:49:45.148Z,2.30
2023-10-23T03:52:11.825Z,2.87
2023-10-23T03:54:38.640Z,2.10
2023-10-23T03:57:05.430Z,2.40
2023-10-23T03:59:32.102Z,2.20
2023-10-23T04:01:58.823Z,2.10
2023-10-23T04:04:25.635Z,2.30
2023-10-23T04:06:52.455Z,2.43
2023-10-23T04:09:19.127Z,2.30
2023-10-23T04:11:45.859Z,2.43
2023-10-23T04:14:12.509Z,2.40
2023-10-23T04:16:40.450Z,2.13
2023-10-23T04:19:07.127Z,24.47
2023-10-23T04:21:40.366Z,29.87
2023-10-23T04:24:08.501Z,46.30
2023-10-23T04:26:37.799Z,32.13
2023-10-23T04:29:05.654Z,11.73
2023-10-23T04:31:32.331Z,5.60
2023-10-23T04:33:59.048Z,3.60
2023-10-23T04:36:25.766Z,3.03
2023-10-23T04:38:52.396Z,2.70
2023-10-23T04:41:20.897Z,2.90
2023-10-23T04:43:47.557Z,2.83
2023-10-23T04:46:14.498Z,3.00
2023-10-23T04:48:41.187Z,2.80
2023-10-23T04:51:07.839Z,2.70
2023-10-23T04:53:34.421Z,43.37
2023-10-23T04:56:04.860Z,35.73
2023-10-23T04:58:31.569Z,11.33
2023-10-23T05:00:58.316Z,6.40
2023-10-23T05:03:25.132Z,4.27
2023-10-23T05:05:52.721Z,2.90
2023-10-23T05:08:19.433Z,2.90
2023-10-23T05:10:46.076Z,2.87
2023-10-23T05:13:12.688Z,2.67
2023-10-23T05:15:39.331Z,2.73
2023-10-23T05:18:06.088Z,2.80
2023-10-23T05:20:35.310Z,2.60
2023-10-23T05:23:02.059Z,2.80
2023-10-23T05:25:28.675Z,3.00
2023-10-23T05:27:55.321Z,2.90
2023-10-23T05:30:22.008Z,2.87
2023-10-23T05:32:48.828Z,2.60
2023-10-23T05:35:16.257Z,2.70
2023-10-23T05:37:42.985Z,2.77
2023-10-23T05:40:09.978Z,2.90
2023-10-23T05:42:36.650Z,3.00
2023-10-23T05:45:04.438Z,3.23
2023-10-23T05:47:31.309Z,3.20
2023-10-23T05:49:58.016Z,2.90
2023-10-23T05:52:24.668Z,2.97
2023-10-23T05:54:51.322Z,3.50
2023-10-23T05:57:17.987Z,3.23
2023-10-23T05:59:44.620Z,3.07
2023-10-23T06:02:13.958Z,2.87
2023-10-23T06:04:45.513Z,3.07
2023-10-23T06:07:13.832Z,11.63
2023-10-23T06:09:41.141Z,32.83
2023-10-23T06:12:08.278Z,14.40
2023-10-23T06:14:34.908Z,5.87
2023-10-23T06:17:01.505Z,4.20
2023-10-23T06:19:28.323Z,3.77
2023-10-23T06:21:55.002Z,3.93
2023-10-23T06:24:21.690Z,11.00
2023-10-23T06:26:48.304Z,41.10
2023-10-23T06:29:14.968Z,48.00
2023-10-23T06:31:41.625Z,20.63
2023-10-23T06:34:08.334Z,8.90
2023-10-23T06:36:35.016Z,6.73
2023-10-23T06:39:01.846Z,4.83
2023-10-23T06:41:28.533Z,4.10
2023-10-23T06:43:55.217Z,3.63
2023-10-23T06:46:21.879Z,3.40
2023-10-23T06:48:48.660Z,2.83
2023-10-23T06:51:15.378Z,3.27
2023-10-23T06:53:42.131Z,3.00
2023-10-23T06:56:11.608Z,2.90
2023-10-23T06:58:38.295Z,2.93
2023-10-23T07:01:11.368Z,3.13
2023-10-23T07:03:38.390Z,3.27
2023-10-23T07:06:07.131Z,2.50
2023-10-23T07:08:34.347Z,2.87
2023-10-23T07:11:03.659Z,3.03
2023-10-23T07:13:30.329Z,2.80
2023-10-23T07:15:57.193Z,3.00
2023-10-23T07:18:25.156Z,3.03
2023-10-23T07:20:57.360Z,3.87
2023-10-23T07:23:24.406Z,3.67
2023-10-23T07:26:23.616Z,3.40
2023-10-23T07:28:51.471Z,2.70
2023-10-23T07:31:18.439Z,3.03
2023-10-23T07:33:45.158Z,3.43
2023-10-23T07:36:13.607Z,3.40
2023-10-23T07:38:42.915Z,3.30
2023-10-23T07:41:10.827Z,3.40
2023-10-23T07:43:37.454Z,3.00
2023-10-23T07:46:16.774Z,3.20
2023-10-23T07:48:45.230Z,2.90
2023-10-23T07:51:12.242Z,3.37
2023-10-23T07:53:39.131Z,2.57
2023-10-23T07:56:06.356Z,3.03
2023-10-23T07:58:33.361Z,2.73
2023-10-23T08:01:07.848Z,2.63
2023-10-23T08:03:35.674Z,19.40
2023-10-23T08:06:07.504Z,22.87
2023-10-23T08:08:36.562Z,10.77
2023-10-23T08:11:05.124Z,4.17
2023-10-23T08:13:32.261Z,2.87
2023-10-23T08:16:00.795Z,2.63
2023-10-23T08:18:38.099Z,3.07
2023-10-23T08:21:14.439Z,3.17
2023-10-23T08:23:42.600Z,10.10
2023-10-23T08:26:09.648Z,6.13
2023-10-23T08:28:54.215Z,4.77
2023-10-23T08:31:34.976Z,3.60
2023-10-23T08:34:06.332Z,2.47
2023-10-23T08:36:34.143Z,2.60
2023-10-23T08:39:02.138Z,2.60
2023-10-23T08:41:28.947Z,2.70
2023-10-23T08:43:58.214Z,2.53
2023-10-23T08:46:33.534Z,2.17
2023-10-23T08:49:05.186Z,2.13
2023-10-23T08:51:35.057Z,2.27
2023-10-23T08:54:12.391Z,2.50
2023-10-23T08:56:42.643Z,2.90
2023-10-23T08:59:15.528Z,39.40
2023-10-23T09:01:42.695Z,6.47
2023-10-23T09:04:12.470Z,2.20
2023-10-23T09:06:40.198Z,2.10
2023-10-23T09:09:07.414Z,1.80
2023-10-23T09:11:45.663Z,2.10
2023-10-23T09:14:26.397Z,1.80
2023-10-23T09:16:55.227Z,2.30
2023-10-23T09:19:26.558Z,2.47
2023-10-23T09:21:59.276Z,11.07
2023-10-23T09:24:26.483Z,3.50
2023-10-23T09:26:53.624Z,2.20
2023-10-23T09:29:27.873Z,1.80
2023-10-23T09:31:56.498Z,1.80
2023-10-23T09:34:23.661Z,1.90
2023-10-23T09:36:51.822Z,1.77
2023-10-23T09:39:19.898Z,1.50
2023-10-23T09:41:47.404Z,1.80
2023-10-23T09:44:15.818Z,1.60
2023-10-23T09:46:43.790Z,2.33
2023-10-23T09:49:13.037Z,1.80
2023-10-23T09:51:41.410Z,1.60
2023-10-23T09:54:21.562Z,1.90
2023-10-23T09:56:50.521Z,1.90
2023-10-23T09:59:26.535Z,2.10
2023-10-23T10:01:59.054Z,1.80
2023-10-23T10:04:41.170Z,2.43
2023-10-23T10:07:27.658Z,2.10
2023-10-23T10:09:55.941Z,1.70
2023-10-23T10:12:24.828Z,2.00
2023-10-23T10:14:54.188Z,2.17
2023-10-23T10:17:21.825Z,2.67
2023-10-23T10:19:50.845Z,2.30
2023-10-23T10:22:25.330Z,2.17
2023-10-23T10:24:53.872Z,3.77
2023-10-23T10:27:21.729Z,4.10
2023-10-23T10:29:48.458Z,3.00
2023-10-23T10:32:15.186Z,3.10
2023-10-23T10:34:57.144Z,2.83
2023-10-23T10:37:28.007Z,10.60
2023-10-23T10:39:57.811Z,2.93
2023-10-23T10:42:26.948Z,2.70
2023-10-23T10:44:54.384Z,2.53
2023-10-23T10:47:22.738Z,2.47
2023-10-23T10:49:52.065Z,2.30
2023-10-23T10:52:29.899Z,2.13
2023-10-23T10:54:57.161Z,2.07
2023-10-23T10:57:23.896Z,1.90
2023-10-23T10:59:59.197Z,2.00
2023-10-23T11:02:26.508Z,2.07
2023-10-23T11:04:53.378Z,1.93
2023-10-23T11:07:24.764Z,2.30
2023-10-23T11:09:52.473Z,1.73
2023-10-23T11:12:20.057Z,1.77
2023-10-23T11:14:49.638Z,1.93
2023-10-23T11:17:17.387Z,2.20
2023-10-23T11:19:51.617Z,1.80
2023-10-23T11:22:23.345Z,2.10
2023-10-23T11:24:50.371Z,10.63
2023-10-23T11:27:17.241Z,5.43
2023-10-23T11:29:48.421Z,17.00
2023-10-23T11:32:16.759Z,5.53
2023-10-23T11:34:44.684Z,3.13
2023-10-23T11:37:12.692Z,2.50
2023-10-23T11:39:43.746Z,2.20
2023-10-23T11:42:12.376Z,2.00
2023-10-23T11:44:41.264Z,2.43
2023-10-23T11:47:09.421Z,2.20
2023-10-23T11:49:36.344Z,2.00
2023-10-23T11:52:06.467Z,2.20
2023-10-23T11:54:33.171Z,5.63
2023-10-23T11:57:00.354Z,5.47
2023-10-23T11:59:27.761Z,3.33
2023-10-23T12:01:58.156Z,3.30
2023-10-23T12:04:25.016Z,2.77
2023-10-23T12:06:51.937Z,2.43
2023-10-23T12:09:18.741Z,2.93
2023-10-23T12:11:45.605Z,2.93
2023-10-23T12:14:12.336Z,2.90
2023-10-23T12:16:39.156Z,3.13
2023-10-23T12:19:05.949Z,3.27
2023-10-23T12:21:33.460Z,6.70
2023-10-23T12:24:00.152Z,7.87
2023-10-23T12:26:27.233Z,4.10
2023-10-23T12:28:54.063Z,7.67
2023-10-23T12:31:22.764Z,3.30
2023-10-23T12:33:51.527Z,2.60
2023-10-23T12:36:18.409Z,2.63
2023-10-23T12:38:45.190Z,2.70
2023-10-23T12:41:12.044Z,1.97
2023-10-23T12:43:39.158Z,2.33
2023-10-23T12:46:05.921Z,3.40
2023-10-23T12:48:32.766Z,4.20
2023-10-23T12:51:02.039Z,9.23
2023-10-23T12:53:28.916Z,5.63
2023-10-23T12:55:55.590Z,3.83
2023-10-23T12:58:22.402Z,2.13
2023-10-23T13:00:49.198Z,1.67
2023-10-23T13:03:16.084Z,1.93
2023-10-23T13:05:42.786Z,1.90
2023-10-23T13:08:09.482Z,2.10
2023-10-23T13:10:36.289Z,1.73
2023-10-23T13:13:03.361Z,1.73
2023-10-23T13:15:30.191Z,1.50
2023-10-23T13:17:57.676Z,1.60
2023-10-23T13:21:29.563Z,1.57
2023-10-23T13:23:11.343Z,1.37
2023-10-23T13:25:39.533Z,3.53
2023-10-23T13:28:06.244Z,5.77
2023-10-23T13:30:33.211Z,3.90
2023-10-23T13:33:00.496Z,2.50
2023-10-23T13:35:27.481Z,2.30
2023-10-23T13:37:54.223Z,1.53
2023-10-23T13:40:20.979Z,1.73
2023-10-23T13:42:47.884Z,2.00
2023-10-23T13:45:17.449Z,1.47
2023-10-23T13:47:44.916Z,1.50
2023-10-23T13:50:11.686Z,1.50
2023-10-23T13:52:38.422Z,1.60
2023-10-23T13:55:05.621Z,1.40
2023-10-23T13:57:32.406Z,1.50
2023-10-23T13:59:59.109Z,1.27
2023-10-23T14:02:25.937Z,1.10
2023-10-23T14:04:52.768Z,1.47
2023-10-23T14:07:19.694Z,1.70
2023-10-23T14:09:49.039Z,1.30
2023-10-23T14:12:17.935Z,2.83
2023-10-23T14:14:44.983Z,4.77
2023-10-23T14:17:11.880Z,1.23
2023-10-23T14:19:48.078Z,1.30
2023-10-23T14:22:18.484Z,1.10
2023-10-23T14:24:47.096Z,0.97
2023-10-23T14:27:13.796Z,1.13
2023-10-23T14:29:41.171Z,1.20
2023-10-23T14:32:08.066Z,1.00
2023-10-23T14:34:34.838Z,0.93
2023-10-23T14:37:01.676Z,1.10
2023-10-23T14:39:28.499Z,1.20
2023-10-23T14:41:55.782Z,1.30
2023-10-23T14:44:25.091Z,1.10
2023-10-23T14:46:53.009Z,1.27
2023-10-23T14:49:20.284Z,1.20
2023-10-23T14:51:47.112Z,1.27
2023-10-23T14:54:13.873Z,1.50
2023-10-23T14:56:40.635Z,1.20
2023-10-23T14:59:07.378Z,1.03
2023-10-23T15:01:34.584Z,1.50
2023-10-23T15:04:01.953Z,1.20
2023-10-23T15:06:28.916Z,1.13
2023-10-23T15:08:55.928Z,1.23
2023-10-23T15:11:26.410Z,1.40
2023-10-23T15:13:57.068Z,3.40
2023-10-23T15:16:23.974Z,3.90
2023-10-23T15:18:53.666Z,3.10
2023-10-23T15:21:20.492Z,1.47
2023-10-23T15:23:47.319Z,1.50
2023-10-23T15:26:14.044Z,1.23
2023-10-23T15:28:41.672Z,1.40
2023-10-23T15:31:08.738Z,1.30
2023-10-23T15:33:37.906Z,1.50
2023-10-23T15:36:06.102Z,1.63
2023-10-23T15:38:36.745Z,1.50
2023-10-23T15:41:09.186Z,1.67
2023-10-23T15:43:38.049Z,1.60
2023-10-23T15:46:05.856Z,1.50
2023-10-23T15:48:32.614Z,1.60
2023-10-23T15:50:59.979Z,5.50
2023-10-23T15:53:28.298Z,2.80
2023-10-23T15:55:56.247Z,1.90
2023-10-23T15:58:23.938Z,2.10
2023-10-23T16:00:55.607Z,2.00
2023-10-23T16:03:23.436Z,1.70
2023-10-23T16:05:51.745Z,1.43
2023-10-23T16:08:18.950Z,1.57
2023-10-23T16:10:51.387Z,1.60
2023-10-23T16:13:18.965Z,1.63
2023-10-23T16:15:48.271Z,1.60
2023-10-23T16:18:17.094Z,1.90
2023-10-23T16:20:44.829Z,3.83
2023-10-23T16:23:12.739Z,7.10
2023-10-23T16:25:43.316Z,3.07
2023-10-23T16:28:11.803Z,2.10
2023-10-23T16:30:42.512Z,1.60
2023-10-23T16:33:10.410Z,1.80
2023-10-23T16:35:37.918Z,1.70
2023-10-23T16:38:05.130Z,1.70
2023-10-23T16:40:34.806Z,1.60
2023-10-23T16:43:02.172Z,1.67
2023-10-23T16:45:29.544Z,1.80
2023-10-23T16:47:57.397Z,1.77
2023-10-23T16:50:25.560Z,1.60
2023-10-23T16:52:52.560Z,9.97
2023-10-23T16:55:19.466Z,9.13
2023-10-23T16:57:46.204Z,5.43
2023-10-23T17:00:15.215Z,2.17
2023-10-23T17:02:42.217Z,2.20
2023-10-23T17:05:13.015Z,1.80
2023-10-23T17:07:40.749Z,1.80
2023-10-23T17:10:08.238Z,2.20
2023-10-23T17:12:35.442Z,1.97
2023-10-23T17:15:03.726Z,2.20
2023-10-23T17:17:30.633Z,2.80
2023-10-23T17:19:57.528Z,1.70
2023-10-23T17:22:24.314Z,1.80
2023-10-23T17:24:51.518Z,2.17
2023-10-23T17:27:18.338Z,1.90
2023-10-23T17:29:45.320Z,2.47
2023-10-23T17:32:12.277Z,1.97
2023-10-23T17:34:39.158Z,2.20
2023-10-23T17:37:05.903Z,2.10
2023-10-23T17:39:33.065Z,2.17
2023-10-23T17:41:59.735Z,4.90
2023-10-23T17:44:26.451Z,10.23
2023-10-23T17:46:55.061Z,6.73
2023-10-23T17:49:23.411Z,4.10
2023-10-23T17:51:50.915Z,2.53
2023-10-23T17:54:17.837Z,8.27
2023-10-23T17:56:44.555Z,5.57
2023-10-23T17:59:11.494Z,2.27
2023-10-23T18:01:40.833Z,2.27
2023-10-23T18:04:09.930Z,2.03
2023-10-23T18:06:38.167Z,2.33
2023-10-23T18:09:05.813Z,2.63
2023-10-23T18:11:33.462Z,2.53
2023-10-23T18:14:00.376Z,2.50
2023-10-23T18:16:27.200Z,2.30
2023-10-23T18:18:54.063Z,2.83
2023-10-23T18:21:20.690Z,2.63
2023-10-23T18:23:47.298Z,2.20
2023-10-23T18:26:13.884Z,2.53
2023-10-23T18:28:40.583Z,2.57
2023-10-23T18:31:07.427Z,2.50
2023-10-23T18:33:34.183Z,2.40
2023-10-23T18:36:05.614Z,2.57
2023-10-23T18:38:32.664Z,2.83
2023-10-23T18:40:59.842Z,3.00
2023-10-23T18:43:28.754Z,2.60
2023-10-23T18:45:56.712Z,2.90
2023-10-23T18:51:51.976Z,2.83
2023-10-23T18:54:19.514Z,2.67
2023-10-23T18:56:46.849Z,2.50
2023-10-23T18:59:14.156Z,3.13
2023-10-23T19:01:41.416Z,2.73
2023-10-23T19:04:08.347Z,3.23
2023-10-23T19:06:36.353Z,2.23
2023-10-23T19:09:05.557Z,2.73
2023-10-23T19:11:32.370Z,2.80
2023-10-23T19:13:59.036Z,3.03
2023-10-23T19:16:25.688Z,2.60
2023-10-23T19:18:52.592Z,2.80
2023-10-23T19:21:19.259Z,3.17
2023-10-23T19:23:46.250Z,2.80
2023-10-23T19:26:14.326Z,2.70
2023-10-23T19:28:40.974Z,2.97
2023-10-23T19:31:20.822Z,2.90
2023-10-23T19:33:48.355Z,2.97
2023-10-23T19:36:15.633Z,2.70
2023-10-23T19:38:43.081Z,3.13
2023-10-23T19:41:13.290Z,2.80
2023-10-23T19:43:44.875Z,3.50
2023-10-23T19:46:14.101Z,2.70
2023-10-23T19:48:41.788Z,2.90
2023-10-23T19:51:10.350Z,3.03
2023-10-23T19:53:41.405Z,3.50
2023-10-23T19:56:18.540Z,3.40
2023-10-23T19:58:45.587Z,3.13
2023-10-23T20:01:12.289Z,2.83
2023-10-23T20:03:39.176Z,3.00
2023-10-23T20:06:05.973Z,3.13
2023-10-23T20:08:32.673Z,3.13
2023-10-23T20:10:59.319Z,3.80
2023-10-23T20:13:26.145Z,3.23
2023-10-23T20:15:52.780Z,3.23
2023-10-23T20:18:19.449Z,3.33
2023-10-23T20:20:54.345Z,3.17
2023-10-23T20:23:21.121Z,3.27
2023-10-23T20:25:48.398Z,3.07
2023-10-23T20:28:15.061Z,3.50
2023-10-23T20:30:41.832Z,3.20
2023-10-23T20:33:11.437Z,3.30
2023-10-23T20:35:38.428Z,3.53
2023-10-23T20:38:05.418Z,3.37
2023-10-23T20:40:32.118Z,3.23
2023-10-23T20:42:58.840Z,2.50
2023-10-23T20:45:25.553Z,3.37
2023-10-23T20:47:52.179Z,3.10
2023-10-23T20:50:20.989Z,3.33
2023-10-23T20:52:47.657Z,3.20
2023-10-23T20:55:15.483Z,3.03
2023-10-23T20:57:42.363Z,2.60
2023-10-23T21:00:09.748Z,3.07
2023-10-23T21:02:37.292Z,3.33
2023-10-23T21:05:05.172Z,3.60
2023-10-23T21:07:31.773Z,3.27
2023-10-23T21:09:58.429Z,3.60
2023-10-23T21:12:25.164Z,3.60
2023-10-23T21:14:51.871Z,2.70
2023-10-23T21:17:19.913Z,3.13
2023-10-23T21:19:46.884Z,3.20
2023-10-23T21:22:13.676Z,2.97
2023-10-23T21:24:40.309Z,3.83
2023-10-23T21:27:07.695Z,2.90
2023-10-23T21:29:34.407Z,2.90
2023-10-23T21:32:01.963Z,3.10
2023-10-23T21:34:29.113Z,3.13
2023-10-23T21:36:55.848Z,3.00
2023-10-23T21:39:22.459Z,2.93
2023-10-23T21:41:49.170Z,3.07
2023-10-23T21:44:15.902Z,2.93
2023-10-23T21:46:42.707Z,3.10
2023-10-23T21:49:11.754Z,3.13
2023-10-23T21:51:39.076Z,2.80
2023-10-23T21:54:06.357Z,3.03
2023-10-23T21:57:18.878Z,2.87
2023-10-23T21:59:21.114Z,2.90
2023-10-23T22:01:49.663Z,3.27
2023-10-23T22:04:18.818Z,3.10
2023-10-23T22:06:46.402Z,3.33
2023-10-23T22:09:14.716Z,3.67
2023-10-23T22:11:41.674Z,3.17
2023-10-23T22:14:08.841Z,3.43
2023-10-23T22:16:35.680Z,2.80
2023-10-23T22:19:02.348Z,2.93
2023-10-23T22:21:29.009Z,3.03
2023-10-23T22:23:55.712Z,2.97
2023-10-23T22:26:22.328Z,3.27
2023-10-23T22:28:48.950Z,3.40
2023-10-23T22:31:15.644Z,3.30
2023-10-23T22:33:42.348Z,3.33
2023-10-23T22:36:09.013Z,3.40
2023-10-23T22:38:35.662Z,3.20
2023-10-23T22:41:05.262Z,3.73
2023-10-23T22:43:32.263Z,3.03
2023-10-23T22:46:02.964Z,3.30
2023-10-23T22:48:30.975Z,2.93
2023-10-23T22:50:57.900Z,2.90
2023-10-23T22:53:25.389Z,3.10
2023-10-23T22:55:54.883Z,3.07
2023-10-23T22:58:31.282Z,3.03
2023-10-23T23:00:59.669Z,2.87
2023-10-23T23:03:26.788Z,2.87
2023-10-23T23:05:55.328Z,2.37
2023-10-23T23:08:22.752Z,2.87
2023-10-23T23:10:49.595Z,2.53
2023-10-23T23:13:16.514Z,2.13
2023-10-23T23:15:46.240Z,2.30
2023-10-23T23:18:15.346Z,2.90
2023-10-23T23:20:44.502Z,2.30
2023-10-23T23:23:11.212Z,2.03
2023-10-23T23:25:37.955Z,2.13
2023-10-23T23:28:04.956Z,2.10
2023-10-23T23:30:32.659Z,2.00
2023-10-23T23:32:59.356Z,2.30
2023-10-23T23:35:26.043Z,1.60
2023-10-23T23:37:53.268Z,2.13
2023-10-23T23:40:19.931Z,2.13
2023-10-23T23:42:46.551Z,2.00
2023-10-23T23:45:13.237Z,2.57
2023-10-23T23:47:39.898Z,2.20
2023-10-23T23:50:07.044Z,2.37
2023-10-23T23:52:33.833Z,2.43
2023-10-23T23:55:00.558Z,2.70
2023-10-23T23:57:29.255Z,2.30
2023-10-23T23:59:55.963Z,2.97
